sensor_id;sensor_type;location;lat;lon;timestamp;pressure;altitude;pressure_sealevel;temperature;humidity
75617;BME280;64200;55.426;37.758;2023-04-03T00:03:28;99014.69;;;8.58;57.72
75617;BME280;64200;55.426;37.758;2023-04-03T00:08:29;99020.25;;;8.58;57.67
75617;BME280;64200;55.426;37.758;2023-04-03T00:13:33;99011.94;;;8.39;57.92
75617;BME280;64200;55.426;37.758;2023-04-03T00:18:34;99004.06;;;8.29;57.98
75617;BME280;64200;55.426;37.758;2023-04-03T00:23:35;99021.84;;;8.22;59.08
75617;BME280;64200;55.426;37.758;2023-04-03T00:28:35;99010.56;;;8.25;58.40
75617;BME280;64200;55.426;37.758;2023-04-03T00:33:36;99015.19;;;8.29;58.74
75617;BME280;64200;55.426;37.758;2023-04-03T00:38:37;99012.41;;;8.29;58.90
75617;BME280;64200;55.426;37.758;2023-04-03T00:43:37;99006.25;;;8.34;58.79
75617;BME280;64200;55.426;37.758;2023-04-03T00:48:45;99011.94;;;8.39;58.89
75617;BME280;64200;55.426;37.758;2023-04-03T00:53:50;99010.41;;;8.38;58.41
75617;BME280;64200;55.426;37.758;2023-04-03T00:59:02;99017.81;;;8.41;58.71
75617;BME280;64200;55.426;37.758;2023-04-03T01:04:05;99013.38;;;8.16;58.90
75617;BME280;64200;55.426;37.758;2023-04-03T01:09:06;99017.69;;;8.08;59.66
75617;BME280;64200;55.426;37.758;2023-04-03T01:14:07;99025.44;;;8.04;59.45
75617;BME280;64200;55.426;37.758;2023-04-03T01:19:11;99023.88;;;7.75;61.11
75617;BME280;64200;55.426;37.758;2023-04-03T01:24:28;99014.91;;;7.43;62.25
75617;BME280;64200;55.426;37.758;2023-04-03T01:29:29;99018.91;;;7.42;62.00
75617;BME280;64200;55.426;37.758;2023-04-03T01:34:30;99016.53;;;7.22;63.37
75617;BME280;64200;55.426;37.758;2023-04-03T01:39:30;99004.41;;;7.29;62.86
75617;BME280;64200;55.426;37.758;2023-04-03T01:44:31;99009.50;;;7.39;62.25
75617;BME280;64200;55.426;37.758;2023-04-03T01:49:31;99012.56;;;7.42;62.37
75617;BME280;64200;55.426;37.758;2023-04-03T01:54:32;99012.09;;;7.34;62.46
75617;BME280;64200;55.426;37.758;2023-04-03T01:59:33;99015.50;;;7.38;62.64
75617;BME280;64200;55.426;37.758;2023-04-03T02:04:33;99006.88;;;7.45;62.14
75617;BME280;64200;55.426;37.758;2023-04-03T02:09:34;99010.00;;;7.56;62.00
75617;BME280;64200;55.426;37.758;2023-04-03T02:14:35;99019.38;;;7.50;61.94
75617;BME280;64200;55.426;37.758;2023-04-03T02:19:35;99020.31;;;7.47;61.79
75617;BME280;64200;55.426;37.758;2023-04-03T02:24:36;99018.28;;;7.47;61.81
75617;BME280;64200;55.426;37.758;2023-04-03T02:29:39;99020.59;;;7.49;61.93
75617;BME280;64200;55.426;37.758;2023-04-03T02:34:39;99020.47;;;7.43;62.01
75617;BME280;64200;55.426;37.758;2023-04-03T02:39:40;99016.13;;;7.42;61.84
75617;BME280;64200;55.426;37.758;2023-04-03T02:44:40;99019.84;;;7.39;61.81
75617;BME280;64200;55.426;37.758;2023-04-03T02:49:41;99024.28;;;7.36;62.25
75617;BME280;64200;55.426;37.758;2023-04-03T02:54:43;99027.53;;;7.35;62.17
75617;BME280;64200;55.426;37.758;2023-04-03T02:59:44;99025.22;;;7.33;62.31
75617;BME280;64200;55.426;37.758;2023-04-03T03:04:45;99025.97;;;7.34;62.18
75617;BME280;64200;55.426;37.758;2023-04-03T03:09:45;99030.75;;;7.33;61.87
75617;BME280;64200;55.426;37.758;2023-04-03T03:14:46;99024.13;;;7.31;62.06
75617;BME280;64200;55.426;37.758;2023-04-03T03:19:46;99029.50;;;7.25;62.45
75617;BME280;64200;55.426;37.758;2023-04-03T03:24:47;99043.50;;;7.12;62.72
75617;BME280;64200;55.426;37.758;2023-04-03T03:29:47;99039.91;;;7.02;62.99
75617;BME280;64200;55.426;37.758;2023-04-03T03:34:48;99023.59;;;7.04;62.62
75617;BME280;64200;55.426;37.758;2023-04-03T03:39:48;99033.63;;;7.11;62.57
75617;BME280;64200;55.426;37.758;2023-04-03T03:44:48;99044.09;;;7.07;62.52
75617;BME280;64200;55.426;37.758;2023-04-03T03:49:49;99032.13;;;7.19;62.93
75617;BME280;64200;55.426;37.758;2023-04-03T03:54:50;99042.91;;;7.27;62.81
75617;BME280;64200;55.426;37.758;2023-04-03T03:59:50;99016.72;;;7.18;62.65
75617;BME280;64200;55.426;37.758;2023-04-03T04:04:54;99036.94;;;7.47;62.30
75617;BME280;64200;55.426;37.758;2023-04-03T04:09:54;99038.22;;;7.55;62.03
75617;BME280;64200;55.426;37.758;2023-04-03T04:14:55;99042.34;;;7.50;62.09
75617;BME280;64200;55.426;37.758;2023-04-03T04:19:55;99044.81;;;7.57;62.37
75617;BME280;64200;55.426;37.758;2023-04-03T04:24:56;99033.88;;;7.54;61.97
75617;BME280;64200;55.426;37.758;2023-04-03T04:29:56;99036.03;;;7.50;61.90
75617;BME280;64200;55.426;37.758;2023-04-03T04:34:57;99041.09;;;7.42;62.29
75617;BME280;64200;55.426;37.758;2023-04-03T04:39:57;99032.63;;;7.36;62.64
75617;BME280;64200;55.426;37.758;2023-04-03T04:44:58;99045.59;;;7.49;62.42
75617;BME280;64200;55.426;37.758;2023-04-03T04:49:58;99055.00;;;7.61;62.23
75617;BME280;64200;55.426;37.758;2023-04-03T04:54:59;99053.31;;;7.54;62.48
75617;BME280;64200;55.426;37.758;2023-04-03T05:00:00;99056.25;;;7.78;62.37
75617;BME280;64200;55.426;37.758;2023-04-03T05:05:00;99050.41;;;7.95;61.58
75617;BME280;64200;55.426;37.758;2023-04-03T05:10:02;99064.47;;;7.91;61.66
75617;BME280;64200;55.426;37.758;2023-04-03T05:15:04;99053.97;;;8.04;61.95
75617;BME280;64200;55.426;37.758;2023-04-03T05:20:05;99064.16;;;8.07;61.48
75617;BME280;64200;55.426;37.758;2023-04-03T05:25:06;99064.28;;;8.22;61.67
75617;BME280;64200;55.426;37.758;2023-04-03T05:30:07;99061.66;;;8.37;60.85
75617;BME280;64200;55.426;37.758;2023-04-03T05:35:08;99069.31;;;8.79;61.34
75617;BME280;64200;55.426;37.758;2023-04-03T05:40:09;99077.06;;;9.18;61.48
75617;BME280;64200;55.426;37.758;2023-04-03T05:45:10;99069.41;;;9.61;60.60
75617;BME280;64200;55.426;37.758;2023-04-03T05:50:10;99070.25;;;9.92;59.81
75617;BME280;64200;55.426;37.758;2023-04-03T05:55:11;99062.38;;;10.14;59.02
75617;BME280;64200;55.426;37.758;2023-04-03T06:00:15;99053.72;;;10.27;58.37
75617;BME280;64200;55.426;37.758;2023-04-03T06:05:16;99085.88;;;10.52;57.69
75617;BME280;64200;55.426;37.758;2023-04-03T06:10:17;99086.56;;;10.77;57.78
75617;BME280;64200;55.426;37.758;2023-04-03T06:15:18;99096.66;;;11.04;57.11
75617;BME280;64200;55.426;37.758;2023-04-03T06:20:19;99099.41;;;11.34;56.46
75617;BME280;64200;55.426;37.758;2023-04-03T06:25:19;99096.72;;;11.81;55.88
75617;BME280;64200;55.426;37.758;2023-04-03T06:30:21;99091.56;;;12.15;55.02
75617;BME280;64200;55.426;37.758;2023-04-03T06:35:22;99084.34;;;12.50;54.55
75617;BME280;64200;55.426;37.758;2023-04-03T06:40:24;99096.66;;;12.90;53.15
75617;BME280;64200;55.426;37.758;2023-04-03T06:45:26;99096.94;;;13.29;53.26
75617;BME280;64200;55.426;37.758;2023-04-03T06:50:27;99098.91;;;13.49;51.71
75617;BME280;64200;55.426;37.758;2023-04-03T06:55:28;99104.28;;;13.59;50.95
75617;BME280;64200;55.426;37.758;2023-04-03T07:00:29;99101.84;;;13.78;51.05
75617;BME280;64200;55.426;37.758;2023-04-03T07:05:30;99102.25;;;14.08;49.48
75617;BME280;64200;55.426;37.758;2023-04-03T07:10:30;99106.91;;;14.28;49.37
75617;BME280;64200;55.426;37.758;2023-04-03T07:15:31;99105.75;;;14.63;49.44
75617;BME280;64200;55.426;37.758;2023-04-03T07:20:32;99103.72;;;15.03;48.04
75617;BME280;64200;55.426;37.758;2023-04-03T07:25:33;99113.19;;;14.78;47.47
75617;BME280;64200;55.426;37.758;2023-04-03T07:30:34;99108.75;;;14.48;48.03
75617;BME280;64200;55.426;37.758;2023-04-03T07:35:35;99108.41;;;14.23;47.95
75617;BME280;64200;55.426;37.758;2023-04-03T07:40:36;99110.72;;;14.25;48.65
75617;BME280;64200;55.426;37.758;2023-04-03T07:45:36;99109.88;;;14.08;47.95
75617;BME280;64200;55.426;37.758;2023-04-03T07:50:37;99121.03;;;13.91;47.99
75617;BME280;64200;55.426;37.758;2023-04-03T07:55:39;99119.22;;;13.82;48.61
75617;BME280;64200;55.426;37.758;2023-04-03T08:00:43;99117.03;;;13.60;48.92
75617;BME280;64200;55.426;37.758;2023-04-03T08:05:46;99116.34;;;13.33;49.38
75617;BME280;64200;55.426;37.758;2023-04-03T08:10:51;99126.50;;;13.30;48.39
75617;BME280;64200;55.426;37.758;2023-04-03T08:15:52;99125.13;;;13.20;48.81
75617;BME280;64200;55.426;37.758;2023-04-03T08:20:52;99130.56;;;13.29;48.89
75617;BME280;64200;55.426;37.758;2023-04-03T08:25:53;99127.97;;;13.52;49.05
75617;BME280;64200;55.426;37.758;2023-04-03T08:30:53;99137.34;;;13.92;48.18
75617;BME280;64200;55.426;37.758;2023-04-03T08:35:54;99138.53;;;14.23;48.14
75617;BME280;64200;55.426;37.758;2023-04-03T08:46:26;99143.94;;;14.38;47.28
75617;BME280;64200;55.426;37.758;2023-04-03T08:51:29;99151.28;;;14.30;46.57
75617;BME280;64200;55.426;37.758;2023-04-03T08:56:31;99140.97;;;14.64;47.26
75617;BME280;64200;55.426;37.758;2023-04-03T09:01:36;99152.72;;;15.82;45.29
75617;BME280;64200;55.426;37.758;2023-04-03T09:06:38;99153.22;;;16.56;44.80
75617;BME280;64200;55.426;37.758;2023-04-03T09:16:58;99137.56;;;17.63;41.69
75617;BME280;64200;55.426;37.758;2023-04-03T09:22:07;99156.63;;;18.69;40.07
75617;BME280;64200;55.426;37.758;2023-04-03T09:27:12;99169.19;;;21.62;38.32
75617;BME280;64200;55.426;37.758;2023-04-03T09:37:44;99167.88;;;25.06;31.69
75617;BME280;64200;55.426;37.758;2023-04-03T09:42:45;99168.78;;;25.09;28.79
75617;BME280;64200;55.426;37.758;2023-04-03T09:47:46;99167.50;;;23.28;27.94
75617;BME280;64200;55.426;37.758;2023-04-03T09:52:48;99176.22;;;20.84;29.91
75617;BME280;64200;55.426;37.758;2023-04-03T09:57:53;99175.13;;;17.77;33.02
75617;BME280;64200;55.426;37.758;2023-04-03T10:02:56;99150.97;;;16.43;36.01
75617;BME280;64200;55.426;37.758;2023-04-03T10:08:33;99169.56;;;16.63;36.52
75617;BME280;64200;55.426;37.758;2023-04-03T10:13:34;99151.78;;;16.32;37.50
75617;BME280;64200;55.426;37.758;2023-04-03T10:18:45;99160.56;;;16.70;37.58
75617;BME280;64200;55.426;37.758;2023-04-03T10:24:00;99159.81;;;16.05;37.78
75617;BME280;64200;55.426;37.758;2023-04-03T10:39:54;99172.59;;;17.12;36.37
75617;BME280;64200;55.426;37.758;2023-04-03T10:50:36;99167.84;;;16.48;36.83
75617;BME280;64200;55.426;37.758;2023-04-03T10:55:56;99178.03;;;16.57;35.85
75617;BME280;64200;55.426;37.758;2023-04-03T11:01:11;99175.75;;;19.14;36.55
75617;BME280;64200;55.426;37.758;2023-04-03T11:06:15;99175.19;;;20.21;32.34
75617;BME280;64200;55.426;37.758;2023-04-03T11:11:24;99169.16;;;18.92;32.21
75617;BME280;64200;55.426;37.758;2023-04-03T11:16:31;99159.91;;;17.61;33.81
75617;BME280;64200;55.426;37.758;2023-04-03T11:21:43;99175.03;;;16.97;34.92
75617;BME280;64200;55.426;37.758;2023-04-03T11:26:46;99167.53;;;16.58;35.87
75617;BME280;64200;55.426;37.758;2023-04-03T11:36:58;99169.84;;;15.78;37.41
75617;BME280;64200;55.426;37.758;2023-04-03T11:42:39;99169.38;;;15.12;38.36
75617;BME280;64200;55.426;37.758;2023-04-03T12:02:59;99165.81;;;15.34;39.56
75617;BME280;64200;55.426;37.758;2023-04-03T12:13:25;99166.31;;;15.26;40.34
75617;BME280;64200;55.426;37.758;2023-04-03T12:29:27;99166.28;;;14.92;40.67
75617;BME280;64200;55.426;37.758;2023-04-03T12:40:26;99161.66;;;14.72;41.19
75617;BME280;64200;55.426;37.758;2023-04-03T12:45:28;99167.00;;;14.70;41.55
75617;BME280;64200;55.426;37.758;2023-04-03T12:50:40;99165.41;;;14.58;42.07
75617;BME280;64200;55.426;37.758;2023-04-03T12:55:41;99156.53;;;14.71;42.31
75617;BME280;64200;55.426;37.758;2023-04-03T13:00:42;99161.94;;;14.91;42.24
75617;BME280;64200;55.426;37.758;2023-04-03T13:05:44;99172.41;;;15.08;42.38
75617;BME280;64200;55.426;37.758;2023-04-03T13:11:01;99159.16;;;15.37;42.05
75617;BME280;64200;55.426;37.758;2023-04-03T13:16:09;99158.38;;;15.36;41.76
75617;BME280;64200;55.426;37.758;2023-04-03T13:21:15;99165.53;;;15.09;41.87
75617;BME280;64200;55.426;37.758;2023-04-03T13:26:18;99161.16;;;14.80;42.38
75617;BME280;64200;55.426;37.758;2023-04-03T13:31:25;99169.31;;;14.83;42.74
75617;BME280;64200;55.426;37.758;2023-04-03T13:36:32;99160.88;;;14.83;42.42
75617;BME280;64200;55.426;37.758;2023-04-03T13:41:39;99166.75;;;14.80;42.23
75617;BME280;64200;55.426;37.758;2023-04-03T13:46:40;99158.88;;;14.84;42.33
75617;BME280;64200;55.426;37.758;2023-04-03T13:51:41;99160.41;;;14.90;41.89
75617;BME280;64200;55.426;37.758;2023-04-03T13:56:41;99165.22;;;14.79;41.67
75617;BME280;64200;55.426;37.758;2023-04-03T14:06:49;99147.50;;;14.44;41.49
75617;BME280;64200;55.426;37.758;2023-04-03T14:11:53;99153.59;;;14.26;41.68
75617;BME280;64200;55.426;37.758;2023-04-03T14:16:57;99154.09;;;14.30;41.98
75617;BME280;64200;55.426;37.758;2023-04-03T14:22:05;99152.59;;;14.40;41.74
75617;BME280;64200;55.426;37.758;2023-04-03T14:27:26;99152.06;;;14.30;41.48
75617;BME280;64200;55.426;37.758;2023-04-03T14:32:27;99153.31;;;14.29;41.65
75617;BME280;64200;55.426;37.758;2023-04-03T14:37:29;99159.31;;;13.99;41.79
75617;BME280;64200;55.426;37.758;2023-04-03T14:42:33;99158.25;;;13.91;41.82
75617;BME280;64200;55.426;37.758;2023-04-03T14:47:36;99166.41;;;13.89;41.72
75617;BME280;64200;55.426;37.758;2023-04-03T14:52:37;99163.38;;;13.98;41.91
75617;BME280;64200;55.426;37.758;2023-04-03T14:57:38;99166.19;;;13.98;42.09
75617;BME280;64200;55.426;37.758;2023-04-03T15:02:39;99158.28;;;13.97;41.81
75617;BME280;64200;55.426;37.758;2023-04-03T15:07:55;99152.38;;;13.89;41.83
75617;BME280;64200;55.426;37.758;2023-04-03T15:12:57;99151.09;;;13.84;42.56
75617;BME280;64200;55.426;37.758;2023-04-03T15:17:58;99156.53;;;13.56;42.69
75617;BME280;64200;55.426;37.758;2023-04-03T15:23:00;99153.16;;;13.52;43.27
75617;BME280;64200;55.426;37.758;2023-04-03T15:28:01;99154.88;;;13.44;44.17
75617;BME280;64200;55.426;37.758;2023-04-03T15:33:02;99156.66;;;13.41;44.09
75617;BME280;64200;55.426;37.758;2023-04-03T15:38:03;99157.72;;;13.17;45.04
75617;BME280;64200;55.426;37.758;2023-04-03T15:43:06;99161.47;;;13.09;45.03
75617;BME280;64200;55.426;37.758;2023-04-03T15:48:07;99169.16;;;12.88;45.69
75617;BME280;64200;55.426;37.758;2023-04-03T15:53:08;99167.63;;;12.87;45.27
75617;BME280;64200;55.426;37.758;2023-04-03T15:58:09;99168.22;;;12.96;45.66
75617;BME280;64200;55.426;37.758;2023-04-03T16:03:17;99168.72;;;12.95;45.30
75617;BME280;64200;55.426;37.758;2023-04-03T16:08:18;99159.75;;;12.91;45.63
75617;BME280;64200;55.426;37.758;2023-04-03T16:13:19;99171.69;;;12.86;45.83
75617;BME280;64200;55.426;37.758;2023-04-03T16:18:19;99171.34;;;12.78;46.44
75617;BME280;64200;55.426;37.758;2023-04-03T16:23:20;99157.47;;;12.63;46.26
75617;BME280;64200;55.426;37.758;2023-04-03T16:28:21;99175.72;;;12.58;46.00
75617;BME280;64200;55.426;37.758;2023-04-03T16:33:23;99176.16;;;12.51;46.58
75617;BME280;64200;55.426;37.758;2023-04-03T16:38:24;99185.53;;;12.48;46.72
75617;BME280;64200;55.426;37.758;2023-04-03T16:43:26;99183.50;;;12.48;46.53
75617;BME280;64200;55.426;37.758;2023-04-03T16:48:29;99184.97;;;12.44;46.93
75617;BME280;64200;55.426;37.758;2023-04-03T16:53:31;99184.91;;;12.38;46.80
75617;BME280;64200;55.426;37.758;2023-04-03T16:58:32;99196.31;;;12.35;47.14
75617;BME280;64200;55.426;37.758;2023-04-03T17:03:32;99198.53;;;12.30;47.33
75617;BME280;64200;55.426;37.758;2023-04-03T17:08:33;99215.50;;;12.27;47.45
75617;BME280;64200;55.426;37.758;2023-04-03T17:13:34;99197.56;;;12.13;47.40
75617;BME280;64200;55.426;37.758;2023-04-03T17:18:35;99214.59;;;12.15;47.98
75617;BME280;64200;55.426;37.758;2023-04-03T17:23:37;99209.97;;;12.12;48.11
75617;BME280;64200;55.426;37.758;2023-04-03T17:28:39;99200.06;;;12.11;47.92
75617;BME280;64200;55.426;37.758;2023-04-03T17:33:40;99207.69;;;12.10;47.85
75617;BME280;64200;55.426;37.758;2023-04-03T17:38:41;99199.91;;;12.00;48.58
75617;BME280;64200;55.426;37.758;2023-04-03T17:43:42;99206.97;;;11.95;48.63
75617;BME280;64200;55.426;37.758;2023-04-03T17:48:42;99203.09;;;11.92;48.71
75617;BME280;64200;55.426;37.758;2023-04-03T17:53:43;99201.94;;;11.84;49.19
75617;BME280;64200;55.426;37.758;2023-04-03T17:58:44;99216.69;;;11.85;48.81
75617;BME280;64200;55.426;37.758;2023-04-03T18:03:46;99218.78;;;11.90;48.99
75617;BME280;64200;55.426;37.758;2023-04-03T18:08:50;99219.50;;;11.85;49.62
75617;BME280;64200;55.426;37.758;2023-04-03T18:13:52;99236.69;;;11.63;50.78
75617;BME280;64200;55.426;37.758;2023-04-03T18:18:54;99236.03;;;11.38;52.45
75617;BME280;64200;55.426;37.758;2023-04-03T18:23:55;99234.94;;;11.35;52.78
75617;BME280;64200;55.426;37.758;2023-04-03T18:28:58;99234.41;;;11.31;53.43
75617;BME280;64200;55.426;37.758;2023-04-03T18:34:00;99235.44;;;11.19;54.31
75617;BME280;64200;55.426;37.758;2023-04-03T18:39:01;99230.81;;;11.16;54.64
75617;BME280;64200;55.426;37.758;2023-04-03T18:44:05;99227.53;;;11.02;54.96
75617;BME280;64200;55.426;37.758;2023-04-03T18:49:08;99232.47;;;11.07;55.07
75617;BME280;64200;55.426;37.758;2023-04-03T18:54:09;99231.97;;;11.09;55.12
75617;BME280;64200;55.426;37.758;2023-04-03T18:59:09;99236.00;;;11.08;56.20
75617;BME280;64200;55.426;37.758;2023-04-03T19:04:10;99233.50;;;11.10;55.65
75617;BME280;64200;55.426;37.758;2023-04-03T19:09:11;99229.09;;;11.03;56.70
75617;BME280;64200;55.426;37.758;2023-04-03T19:14:11;99221.28;;;10.93;56.36
75617;BME280;64200;55.426;37.758;2023-04-03T19:19:12;99215.13;;;10.88;56.90
75617;BME280;64200;55.426;37.758;2023-04-03T19:24:12;99222.63;;;10.97;56.96
75617;BME280;64200;55.426;37.758;2023-04-03T19:29:13;99215.50;;;11.11;57.09
75617;BME280;64200;55.426;37.758;2023-04-03T19:34:14;99210.50;;;11.15;57.08
75617;BME280;64200;55.426;37.758;2023-04-03T19:39:14;99210.41;;;11.10;57.94
75617;BME280;64200;55.426;37.758;2023-04-03T19:44:15;99202.03;;;11.10;57.71
75617;BME280;64200;55.426;37.758;2023-04-03T19:49:15;99186.63;;;10.99;57.37
75617;BME280;64200;55.426;37.758;2023-04-03T19:54:18;99197.69;;;11.08;57.87
75617;BME280;64200;55.426;37.758;2023-04-03T19:59:20;99213.09;;;11.04;58.08
75617;BME280;64200;55.426;37.758;2023-04-03T20:04:20;99211.28;;;11.01;58.32
75617;BME280;64200;55.426;37.758;2023-04-03T20:09:20;99210.41;;;10.95;59.20
75617;BME280;64200;55.426;37.758;2023-04-03T20:14:21;99210.28;;;10.89;58.88
75617;BME280;64200;55.426;37.758;2023-04-03T20:19:22;99198.53;;;10.85;59.43
75617;BME280;64200;55.426;37.758;2023-04-03T20:24:25;99193.44;;;10.83;60.04
75617;BME280;64200;55.426;37.758;2023-04-03T20:29:27;99192.19;;;10.84;60.20
75617;BME280;64200;55.426;37.758;2023-04-03T20:34:28;99192.31;;;10.90;60.68
75617;BME280;64200;55.426;37.758;2023-04-03T20:39:29;99181.91;;;10.90;60.34
75617;BME280;64200;55.426;37.758;2023-04-03T20:44:30;99185.66;;;10.87;60.48
75617;BME280;64200;55.426;37.758;2023-04-03T20:49:31;99171.00;;;10.78;60.45
75617;BME280;64200;55.426;37.758;2023-04-03T20:54:31;99186.50;;;10.79;60.70
75617;BME280;64200;55.426;37.758;2023-04-03T20:59:33;99176.50;;;10.72;61.04
75617;BME280;64200;55.426;37.758;2023-04-03T21:04:43;99156.97;;;10.57;61.19
75617;BME280;64200;55.426;37.758;2023-04-03T21:20:54;99160.25;;;10.56;62.05
75617;BME280;64200;55.426;37.758;2023-04-03T21:26:03;99169.75;;;10.64;62.15
75617;BME280;64200;55.426;37.758;2023-04-03T21:31:03;99167.44;;;10.62;62.25
75617;BME280;64200;55.426;37.758;2023-04-03T21:36:04;99155.53;;;10.62;62.36
75617;BME280;64200;55.426;37.758;2023-04-03T21:41:04;99160.63;;;10.63;62.39
75617;BME280;64200;55.426;37.758;2023-04-03T21:46:05;99164.75;;;10.53;62.33
75617;BME280;64200;55.426;37.758;2023-04-03T21:51:05;99152.72;;;10.47;62.74
75617;BME280;64200;55.426;37.758;2023-04-03T21:56:06;99153.56;;;10.38;62.91
75617;BME280;64200;55.426;37.758;2023-04-03T22:01:11;99155.00;;;10.33;63.06
75617;BME280;64200;55.426;37.758;2023-04-03T22:06:14;99152.50;;;10.35;63.24
75617;BME280;64200;55.426;37.758;2023-04-03T22:11:15;99141.06;;;10.33;63.42
75617;BME280;64200;55.426;37.758;2023-04-03T22:16:16;99143.97;;;10.30;63.44
75617;BME280;64200;55.426;37.758;2023-04-03T22:21:17;99130.41;;;10.23;63.80
75617;BME280;64200;55.426;37.758;2023-04-03T22:26:17;99128.22;;;10.27;63.53
75617;BME280;64200;55.426;37.758;2023-04-03T22:31:18;99135.81;;;10.26;63.91
75617;BME280;64200;55.426;37.758;2023-04-03T22:36:19;99141.28;;;10.20;63.79
75617;BME280;64200;55.426;37.758;2023-04-03T22:41:20;99143.31;;;10.20;63.58
75617;BME280;64200;55.426;37.758;2023-04-03T22:46:21;99120.06;;;9.99;64.18
75617;BME280;64200;55.426;37.758;2023-04-03T22:51:21;99128.41;;;9.99;64.31
75617;BME280;64200;55.426;37.758;2023-04-03T22:56:22;99124.47;;;9.91;64.54
75617;BME280;64200;55.426;37.758;2023-04-03T23:01:22;99132.22;;;9.87;64.82
75617;BME280;64200;55.426;37.758;2023-04-03T23:06:26;99117.88;;;9.79;64.76
75617;BME280;64200;55.426;37.758;2023-04-03T23:11:27;99126.34;;;9.84;64.74
75617;BME280;64200;55.426;37.758;2023-04-03T23:16:27;99121.72;;;9.81;64.73
75617;BME280;64200;55.426;37.758;2023-04-03T23:21:28;99105.06;;;9.72;64.97
75617;BME280;64200;55.426;37.758;2023-04-03T23:26:28;99118.50;;;9.74;64.92
75617;BME280;64200;55.426;37.758;2023-04-03T23:31:29;99100.03;;;9.61;65.15
75617;BME280;64200;55.426;37.758;2023-04-03T23:36:30;99096.84;;;9.54;65.04
75617;BME280;64200;55.426;37.758;2023-04-03T23:41:30;99102.97;;;9.58;65.04
75617;BME280;64200;55.426;37.758;2023-04-03T23:46:31;99105.00;;;9.57;65.59
75617;BME280;64200;55.426;37.758;2023-04-03T23:51:32;99100.56;;;9.51;65.48
75617;BME280;64200;55.426;37.758;2023-04-03T23:56:32;99107.97;;;9.54;65.70
